sensor_id;sensor_type;location;lat;lon;timestamp;pressure;altitude;pressure_sealevel;temperature;humidity
9523;BME280;63165;43.016;25.784;2023-04-01T00:00:09;99137.50;;;8.23;77.95
9523;BME280;63165;43.016;25.784;2023-04-01T00:02:37;99132.22;;;8.27;77.75
9523;BME280;63165;43.016;25.784;2023-04-01T00:05:05;99133.19;;;8.23;78.53
9523;BME280;63165;43.016;25.784;2023-04-01T00:07:32;99108.19;;;8.13;78.69
9523;BME280;63165;43.016;25.784;2023-04-01T00:10:00;99107.25;;;8.17;78.74
9523;BME280;63165;43.016;25.784;2023-04-01T00:12:27;99108.13;;;8.18;78.45
9523;BME280;63165;43.016;25.784;2023-04-01T00:14:55;99084.00;;;8.08;78.84
9523;BME280;63165;43.016;25.784;2023-04-01T00:17:24;99053.09;;;7.91;78.92
9523;BME280;63165;43.016;25.784;2023-04-01T00:19:51;99084.84;;;8.10;79.48
9523;BME280;63165;43.016;25.784;2023-04-01T00:22:18;99076.25;;;8.05;79.83
9523;BME280;63165;43.016;25.784;2023-04-01T00:24:46;99087.28;;;8.18;80.26
9523;BME280;63165;43.016;25.784;2023-04-01T00:27:14;99097.81;;;8.11;80.62
9523;BME280;63165;43.016;25.784;2023-04-01T00:29:41;99086.19;;;8.26;81.19
9523;BME280;63165;43.016;25.784;2023-04-01T00:32:09;99082.72;;;8.27;81.19
9523;BME280;63165;43.016;25.784;2023-04-01T00:34:38;99068.97;;;8.19;81.45
9523;BME280;63165;43.016;25.784;2023-04-01T00:37:06;99073.06;;;8.31;81.28
9523;BME280;63165;43.016;25.784;2023-04-01T00:39:34;99084.28;;;8.34;81.38
9523;BME280;63165;43.016;25.784;2023-04-01T00:42:02;99060.88;;;8.33;81.70
9523;BME280;63165;43.016;25.784;2023-04-01T00:44:32;99055.81;;;8.27;81.64
9523;BME280;63165;43.016;25.784;2023-04-01T00:47:00;99048.47;;;8.44;82.12
9523;BME280;63165;43.016;25.784;2023-04-01T00:49:31;99021.81;;;8.31;82.62
9523;BME280;63165;43.016;25.784;2023-04-01T00:52:02;99054.28;;;8.55;82.75
9523;BME280;63165;43.016;25.784;2023-04-01T00:54:32;99058.31;;;8.67;82.74
9523;BME280;63165;43.016;25.784;2023-04-01T00:57:01;99027.97;;;8.65;82.64
9523;BME280;63165;43.016;25.784;2023-04-01T00:59:30;99048.47;;;8.79;82.96
9523;BME280;63165;43.016;25.784;2023-04-01T01:01:59;99016.47;;;8.73;82.53
9523;BME280;63165;43.016;25.784;2023-04-01T01:04:28;99031.81;;;8.84;82.26
9523;BME280;63165;43.016;25.784;2023-04-01T01:07:06;98991.22;;;8.74;82.56
9523;BME280;63165;43.016;25.784;2023-04-01T01:09:45;99030.91;;;8.87;82.17
9523;BME280;63165;43.016;25.784;2023-04-01T01:12:19;99007.38;;;8.88;82.29
9523;BME280;63165;43.016;25.784;2023-04-01T01:14:54;99001.28;;;8.88;82.19
9523;BME280;63165;43.016;25.784;2023-04-01T01:17:29;99001.25;;;8.89;82.13
9523;BME280;63165;43.016;25.784;2023-04-01T01:26:39;98995.28;;;8.84;81.72
9523;BME280;63165;43.016;25.784;2023-04-01T01:29:26;98960.22;;;8.63;81.23
9523;BME280;63165;43.016;25.784;2023-04-01T01:32:03;98994.28;;;8.90;81.68
9523;BME280;63165;43.016;25.784;2023-04-01T01:34:36;98986.66;;;8.82;81.35
9523;BME280;63165;43.016;25.784;2023-04-01T01:37:11;98990.03;;;8.86;81.32
9523;BME280;63165;43.016;25.784;2023-04-01T01:39:40;99007.53;;;8.82;81.21
9523;BME280;63165;43.016;25.784;2023-04-01T01:42:11;98989.25;;;8.82;80.95
9523;BME280;63165;43.016;25.784;2023-04-01T01:44:42;98962.91;;;8.60;81.10
9523;BME280;63165;43.016;25.784;2023-04-01T01:47:11;99013.19;;;8.65;81.04
9523;BME280;63165;43.016;25.784;2023-04-01T01:49:41;98985.72;;;8.52;81.60
9523;BME280;63165;43.016;25.784;2023-04-01T01:52:12;99004.50;;;8.65;81.51
9523;BME280;63165;43.016;25.784;2023-04-01T01:54:47;98998.47;;;8.63;82.39
9523;BME280;63165;43.016;25.784;2023-04-01T01:57:15;99004.53;;;8.63;82.20
9523;BME280;63165;43.016;25.784;2023-04-01T01:59:45;98998.50;;;8.61;81.89
9523;BME280;63165;43.016;25.784;2023-04-01T02:02:14;98949.44;;;8.41;81.87
9523;BME280;63165;43.016;25.784;2023-04-01T02:04:43;98985.50;;;8.60;81.96
9523;BME280;63165;43.016;25.784;2023-04-01T02:07:16;98979.06;;;8.39;82.08
9523;BME280;63165;43.016;25.784;2023-04-01T02:09:46;99002.16;;;8.54;82.42
9523;BME280;63165;43.016;25.784;2023-04-01T02:12:15;98995.25;;;8.53;82.20
9523;BME280;63165;43.016;25.784;2023-04-01T02:14:46;98984.97;;;8.47;82.07
9523;BME280;63165;43.016;25.784;2023-04-01T02:17:17;98978.06;;;8.46;82.21
9523;BME280;63165;43.016;25.784;2023-04-01T02:19:48;98976.53;;;8.35;81.95
9523;BME280;63165;43.016;25.784;2023-04-01T02:22:22;98972.88;;;8.44;82.13
9523;BME280;63165;43.016;25.784;2023-04-01T02:24:52;98963.63;;;8.31;82.55
9523;BME280;63165;43.016;25.784;2023-04-01T02:27:21;98934.44;;;8.16;82.87
9523;BME280;63165;43.016;25.784;2023-04-01T02:29:48;98961.84;;;8.33;82.97
9523;BME280;63165;43.016;25.784;2023-04-01T02:32:17;98979.03;;;8.42;82.96
9523;BME280;63165;43.016;25.784;2023-04-01T02:34:47;98959.06;;;8.39;82.86
9523;BME280;63165;43.016;25.784;2023-04-01T02:37:15;98957.31;;;8.40;82.68
9523;BME280;63165;43.016;25.784;2023-04-01T02:39:44;98952.06;;;8.43;82.54
9523;BME280;63165;43.016;25.784;2023-04-01T02:42:12;98948.56;;;8.44;82.46
9523;BME280;63165;43.016;25.784;2023-04-01T02:44:40;98942.47;;;8.43;82.82
9523;BME280;63165;43.016;25.784;2023-04-01T02:47:07;98932.13;;;8.40;82.58
9523;BME280;63165;43.016;25.784;2023-04-01T02:49:34;98919.19;;;8.35;82.90
9523;BME280;63165;43.016;25.784;2023-04-01T02:52:02;98919.28;;;8.32;82.86
9523;BME280;63165;43.016;25.784;2023-04-01T02:54:29;98925.16;;;8.41;82.72
9523;BME280;63165;43.016;25.784;2023-04-01T02:56:58;98909.00;;;8.26;82.62
9523;BME280;63165;43.016;25.784;2023-04-01T02:59:26;98942.53;;;8.40;82.47
9523;BME280;63165;43.016;25.784;2023-04-01T03:01:53;98939.94;;;8.40;82.38
9523;BME280;63165;43.016;25.784;2023-04-01T03:04:20;98934.63;;;8.45;82.51
9523;BME280;63165;43.016;25.784;2023-04-01T03:06:48;98931.94;;;8.48;82.34
9523;BME280;63165;43.016;25.784;2023-04-01T03:09:15;98938.16;;;8.44;81.82
9523;BME280;63165;43.016;25.784;2023-04-01T03:11:42;98945.97;;;8.44;82.18
9523;BME280;63165;43.016;25.784;2023-04-01T03:14:11;98934.81;;;8.35;81.95
9523;BME280;63165;43.016;25.784;2023-04-01T03:16:38;98939.19;;;8.35;81.64
9523;BME280;63165;43.016;25.784;2023-04-01T03:19:06;98930.66;;;8.28;81.44
9523;BME280;63165;43.016;25.784;2023-04-01T03:21:33;98936.94;;;8.21;81.79
9523;BME280;63165;43.016;25.784;2023-04-01T03:24:00;98924.78;;;8.22;81.53
9523;BME280;63165;43.016;25.784;2023-04-01T03:26:28;98932.56;;;8.23;82.13
9523;BME280;63165;43.016;25.784;2023-04-01T03:28:55;98920.72;;;8.10;81.98
9523;BME280;63165;43.016;25.784;2023-04-01T03:31:24;98911.31;;;8.04;82.07
9523;BME280;63165;43.016;25.784;2023-04-01T03:33:52;98919.81;;;8.11;81.81
9523;BME280;63165;43.016;25.784;2023-04-01T03:36:19;98923.38;;;8.08;82.10
9523;BME280;63165;43.016;25.784;2023-04-01T03:38:47;98909.63;;;8.02;82.35
9523;BME280;63165;43.016;25.784;2023-04-01T03:41:15;98919.97;;;8.05;82.25
9523;BME280;63165;43.016;25.784;2023-04-01T03:43:43;98922.47;;;8.08;82.22
9523;BME280;63165;43.016;25.784;2023-04-01T03:46:11;98921.84;;;8.00;82.54
9523;BME280;63165;43.016;25.784;2023-04-01T03:48:40;98930.44;;;8.03;82.98
9523;BME280;63165;43.016;25.784;2023-04-01T03:51:08;98930.47;;;8.02;82.40
9523;BME280;63165;43.016;25.784;2023-04-01T03:53:35;98925.25;;;8.02;82.51
9523;BME280;63165;43.016;25.784;2023-04-01T03:56:04;98889.25;;;7.82;83.07
9523;BME280;63165;43.016;25.784;2023-04-01T03:58:31;98906.38;;;7.93;82.69
9523;BME280;63165;43.016;25.784;2023-04-01T04:00:59;98925.09;;;8.08;82.67
9523;BME280;63165;43.016;25.784;2023-04-01T04:03:26;98907.09;;;7.98;82.88
9523;BME280;63165;43.016;25.784;2023-04-01T04:05:55;98935.38;;;8.14;83.27
9523;BME280;63165;43.016;25.784;2023-04-01T04:08:22;98939.09;;;8.04;83.31
9523;BME280;63165;43.016;25.784;2023-04-01T04:10:54;98906.38;;;7.93;83.94
9523;BME280;63165;43.016;25.784;2023-04-01T04:13:22;98918.97;;;8.10;83.89
9523;BME280;63165;43.016;25.784;2023-04-01T04:15:49;98906.13;;;8.03;83.65
9523;BME280;63165;43.016;25.784;2023-04-01T04:18:16;98902.53;;;8.08;84.03
9523;BME280;63165;43.016;25.784;2023-04-01T04:20:44;98916.84;;;8.25;84.24
9523;BME280;63165;43.016;25.784;2023-04-01T04:23:15;98911.59;;;8.26;84.67
9523;BME280;63165;43.016;25.784;2023-04-01T04:25:53;98901.16;;;8.28;85.16
9523;BME280;63165;43.016;25.784;2023-04-01T04:28:21;98886.59;;;8.19;85.49
9523;BME280;63165;43.016;25.784;2023-04-01T04:30:48;98910.66;;;8.30;85.45
9523;BME280;63165;43.016;25.784;2023-04-01T04:33:16;98865.03;;;8.14;85.77
9523;BME280;63165;43.016;25.784;2023-04-01T04:35:43;98915.56;;;8.41;85.78
9523;BME280;63165;43.016;25.784;2023-04-01T04:38:10;98898.34;;;8.35;85.63
9523;BME280;63165;43.016;25.784;2023-04-01T04:40:40;98907.78;;;8.40;86.07
9523;BME280;63165;43.016;25.784;2023-04-01T04:43:10;98877.66;;;8.29;85.79
9523;BME280;63165;43.016;25.784;2023-04-01T04:45:37;98901.44;;;8.51;85.91
9523;BME280;63165;43.016;25.784;2023-04-01T04:48:05;98911.53;;;8.64;85.94
9523;BME280;63165;43.016;25.784;2023-04-01T04:50:34;98913.25;;;8.65;86.30
9523;BME280;63165;43.016;25.784;2023-04-01T04:53:01;98927.69;;;8.77;86.38
9523;BME280;63165;43.016;25.784;2023-04-01T04:55:28;98924.06;;;8.82;86.74
9523;BME280;63165;43.016;25.784;2023-04-01T04:57:57;98911.00;;;8.84;87.09
9523;BME280;63165;43.016;25.784;2023-04-01T05:00:24;98901.38;;;8.86;87.30
9523;BME280;63165;43.016;25.784;2023-04-01T05:02:52;98915.72;;;9.01;87.28
9523;BME280;63165;43.016;25.784;2023-04-01T05:05:19;98908.47;;;9.10;87.46
9523;BME280;63165;43.016;25.784;2023-04-01T05:07:46;98893.63;;;9.12;87.46
9523;BME280;63165;43.016;25.784;2023-04-01T05:10:14;98889.78;;;9.26;87.51
9523;BME280;63165;43.016;25.784;2023-04-01T05:12:41;98788.84;;;8.70;88.32
9523;BME280;63165;43.016;25.784;2023-04-01T05:15:10;98889.31;;;9.41;87.80
9523;BME280;63165;43.016;25.784;2023-04-01T05:17:38;98872.75;;;9.42;87.38
9523;BME280;63165;43.016;25.784;2023-04-01T05:20:07;98877.25;;;9.65;87.11
9523;BME280;63165;43.016;25.784;2023-04-01T05:22:35;98772.81;;;9.10;87.14
9523;BME280;63165;43.016;25.784;2023-04-01T05:25:03;98854.34;;;9.74;87.38
9523;BME280;63165;43.016;25.784;2023-04-01T05:27:31;98881.28;;;9.76;87.46
9523;BME280;63165;43.016;25.784;2023-04-01T05:29:58;98867.31;;;10.03;87.34
9523;BME280;63165;43.016;25.784;2023-04-01T05:32:27;98850.97;;;9.97;86.55
9523;BME280;63165;43.016;25.784;2023-04-01T05:34:54;98857.25;;;10.18;86.12
9523;BME280;63165;43.016;25.784;2023-04-01T05:37:22;98870.00;;;10.27;86.08
9523;BME280;63165;43.016;25.784;2023-04-01T05:39:49;98876.38;;;10.45;85.65
9523;BME280;63165;43.016;25.784;2023-04-01T05:42:16;98859.75;;;10.47;85.26
9523;BME280;63165;43.016;25.784;2023-04-01T05:44:44;98848.31;;;10.50;84.66
9523;BME280;63165;43.016;25.784;2023-04-01T05:47:11;98862.03;;;10.80;85.38
9523;BME280;63165;43.016;25.784;2023-04-01T05:49:39;98870.53;;;10.87;85.34
9523;BME280;63165;43.016;25.784;2023-04-01T05:52:08;98860.31;;;11.03;85.02
9523;BME280;63165;43.016;25.784;2023-04-01T05:54:35;98845.38;;;11.06;85.47
9523;BME280;63165;43.016;25.784;2023-04-01T05:57:02;98838.78;;;11.18;85.19
9523;BME280;63165;43.016;25.784;2023-04-01T05:59:30;98857.78;;;11.47;84.98
9523;BME280;63165;43.016;25.784;2023-04-01T06:01:58;98838.41;;;11.51;84.95
9523;BME280;63165;43.016;25.784;2023-04-01T06:04:31;98853.13;;;11.76;84.54
9523;BME280;63165;43.016;25.784;2023-04-01T06:07:00;98823.63;;;11.71;83.72
9523;BME280;63165;43.016;25.784;2023-04-01T06:09:29;98848.56;;;12.03;84.30
9523;BME280;63165;43.016;25.784;2023-04-01T06:12:16;98826.41;;;12.10;84.56
9523;BME280;63165;43.016;25.784;2023-04-01T06:14:51;98860.75;;;12.45;84.11
9523;BME280;63165;43.016;25.784;2023-04-01T06:17:30;98843.75;;;12.54;83.48
9523;BME280;63165;43.016;25.784;2023-04-01T06:20:09;98818.44;;;12.53;82.67
9523;BME280;63165;43.016;25.784;2023-04-01T06:22:56;98854.28;;;12.92;82.50
9523;BME280;63165;43.016;25.784;2023-04-01T06:25:48;98849.22;;;13.08;82.55
9523;BME280;63165;43.016;25.784;2023-04-01T06:31:26;98830.19;;;13.40;81.20
9523;BME280;63165;43.016;25.784;2023-04-01T06:34:12;98838.13;;;13.58;79.97
9523;BME280;63165;43.016;25.784;2023-04-01T06:36:54;98835.72;;;13.71;79.87
9523;BME280;63165;43.016;25.784;2023-04-01T06:39:38;98808.34;;;13.57;79.48
9523;BME280;63165;43.016;25.784;2023-04-01T06:42:21;98837.38;;;13.91;79.85
9523;BME280;63165;43.016;25.784;2023-04-01T06:44:57;98801.66;;;13.87;80.09
9523;BME280;63165;43.016;25.784;2023-04-01T06:47:36;98830.19;;;14.12;79.18
9523;BME280;63165;43.016;25.784;2023-04-01T06:50:14;98823.69;;;14.19;78.10
9523;BME280;63165;43.016;25.784;2023-04-01T06:52:51;98817.28;;;14.07;78.85
9523;BME280;63165;43.016;25.784;2023-04-01T06:55:28;98816.47;;;14.23;79.16
9523;BME280;63165;43.016;25.784;2023-04-01T06:58:00;98838.44;;;14.39;78.62
9523;BME280;63165;43.016;25.784;2023-04-01T07:00:32;98824.88;;;14.47;78.41
9523;BME280;63165;43.016;25.784;2023-04-01T07:03:06;98793.13;;;14.16;78.15
9523;BME280;63165;43.016;25.784;2023-04-01T07:05:37;98827.88;;;14.56;77.98
9523;BME280;63165;43.016;25.784;2023-04-01T07:08:08;98799.69;;;14.43;77.63
9523;BME280;63165;43.016;25.784;2023-04-01T07:10:43;98831.84;;;14.65;77.37
9523;BME280;63165;43.016;25.784;2023-04-01T07:13:17;98787.03;;;14.49;78.06
9523;BME280;63165;43.016;25.784;2023-04-01T07:15:55;98823.03;;;14.66;77.62
9523;BME280;63165;43.016;25.784;2023-04-01T07:18:30;98840.22;;;14.89;77.75
9523;BME280;63165;43.016;25.784;2023-04-01T07:20:59;98835.47;;;14.96;76.76
9523;BME280;63165;43.016;25.784;2023-04-01T07:23:31;98852.16;;;15.12;76.87
9523;BME280;63165;43.016;25.784;2023-04-01T07:26:04;98848.16;;;15.21;75.97
9523;BME280;63165;43.016;25.784;2023-04-01T07:28:33;98843.22;;;15.31;75.94
9523;BME280;63165;43.016;25.784;2023-04-01T07:31:10;98839.81;;;15.45;74.99
9523;BME280;63165;43.016;25.784;2023-04-01T07:33:48;98842.13;;;15.51;74.61
9523;BME280;63165;43.016;25.784;2023-04-01T07:36:23;98814.81;;;15.52;73.88
9523;BME280;63165;43.016;25.784;2023-04-01T07:38:59;98810.44;;;15.67;72.98
9523;BME280;63165;43.016;25.784;2023-04-01T07:41:42;98794.16;;;15.60;72.18
9523;BME280;63165;43.016;25.784;2023-04-01T07:44:24;98803.56;;;15.80;71.63
9523;BME280;63165;43.016;25.784;2023-04-01T07:47:09;98794.72;;;15.81;70.88
9523;BME280;63165;43.016;25.784;2023-04-01T07:49:48;98804.00;;;16.03;70.84
9523;BME280;63165;43.016;25.784;2023-04-01T07:52:22;98796.50;;;16.11;70.40
9523;BME280;63165;43.016;25.784;2023-04-01T07:54:57;98789.84;;;16.20;69.65
9523;BME280;63165;43.016;25.784;2023-04-01T07:57:35;98773.22;;;16.18;69.16
9523;BME280;63165;43.016;25.784;2023-04-01T08:00:12;98773.88;;;16.07;68.59
9523;BME280;63165;43.016;25.784;2023-04-01T08:02:53;98757.59;;;16.15;67.77
9523;BME280;63165;43.016;25.784;2023-04-01T08:05:27;98779.84;;;16.39;66.94
9523;BME280;63165;43.016;25.784;2023-04-01T08:08:02;98748.66;;;16.46;66.33
9523;BME280;63165;43.016;25.784;2023-04-01T08:10:39;98735.81;;;16.54;65.98
9523;BME280;63165;43.016;25.784;2023-04-01T08:13:16;98738.06;;;16.75;65.03
9523;BME280;63165;43.016;25.784;2023-04-01T08:15:56;98726.34;;;16.93;63.96
9523;BME280;63165;43.016;25.784;2023-04-01T08:18:33;98731.56;;;17.07;62.77
9523;BME280;63165;43.016;25.784;2023-04-01T08:21:09;98687.38;;;16.97;61.49
9523;BME280;63165;43.016;25.784;2023-04-01T08:23:41;98692.03;;;17.33;60.32
9523;BME280;63165;43.016;25.784;2023-04-01T08:26:14;98705.63;;;17.67;58.76
9523;BME280;63165;43.016;25.784;2023-04-01T08:28:52;98697.44;;;17.97;58.78
9523;BME280;63165;43.016;25.784;2023-04-01T08:31:25;98703.81;;;18.20;58.07
9523;BME280;63165;43.016;25.784;2023-04-01T08:33:56;98694.75;;;18.49;57.09
9523;BME280;63165;43.016;25.784;2023-04-01T08:36:28;98672.25;;;18.67;56.36
9523;BME280;63165;43.016;25.784;2023-04-01T08:39:01;98695.44;;;19.13;54.72
9523;BME280;63165;43.016;25.784;2023-04-01T08:42:04;98680.94;;;19.30;52.12
9523;BME280;63165;43.016;25.784;2023-04-01T08:45:16;98679.56;;;19.60;49.46
9523;BME280;63165;43.016;25.784;2023-04-01T08:47:54;98682.91;;;19.86;48.65
9523;BME280;63165;43.016;25.784;2023-04-01T08:53:47;98689.84;;;20.34;47.01
9523;BME280;63165;43.016;25.784;2023-04-01T08:56:20;98695.97;;;20.57;46.90
9523;BME280;63165;43.016;25.784;2023-04-01T08:59:10;98684.75;;;20.65;45.54
9523;BME280;63165;43.016;25.784;2023-04-01T09:02:01;98697.53;;;20.93;45.07
9523;BME280;63165;43.016;25.784;2023-04-01T09:05:02;98678.81;;;20.95;43.81
9523;BME280;63165;43.016;25.784;2023-04-01T09:07:43;98672.22;;;21.10;43.93
9523;BME280;63165;43.016;25.784;2023-04-01T09:10:43;98660.16;;;21.06;42.97
9523;BME280;63165;43.016;25.784;2023-04-01T09:13:24;98667.69;;;21.22;42.32
9523;BME280;63165;43.016;25.784;2023-04-01T09:16:22;98665.91;;;21.44;42.29
9523;BME280;63165;43.016;25.784;2023-04-01T09:19:21;98665.59;;;21.58;41.07
9523;BME280;63165;43.016;25.784;2023-04-01T09:22:07;98656.13;;;21.65;41.33
9523;BME280;63165;43.016;25.784;2023-04-01T09:27:44;98663.31;;;21.96;39.96
9523;BME280;63165;43.016;25.784;2023-04-01T09:30:32;98613.53;;;21.86;39.77
9523;BME280;63165;43.016;25.784;2023-04-01T09:36:04;98635.41;;;22.21;38.27
9523;BME280;63165;43.016;25.784;2023-04-01T09:38:44;98627.81;;;22.16;38.58
9523;BME280;63165;43.016;25.784;2023-04-01T09:41:26;98629.59;;;22.06;38.81
9523;BME280;63165;43.016;25.784;2023-04-01T09:44:00;98621.66;;;22.16;38.97
9523;BME280;63165;43.016;25.784;2023-04-01T09:46:32;98626.13;;;22.15;39.17
9523;BME280;63165;43.016;25.784;2023-04-01T09:51:53;98612.81;;;22.15;39.94
9523;BME280;63165;43.016;25.784;2023-04-01T09:54:36;98628.38;;;22.41;39.09
9523;BME280;63165;43.016;25.784;2023-04-01T09:57:26;98615.63;;;22.54;38.24
9523;BME280;63165;43.016;25.784;2023-04-01T10:00:15;98609.88;;;22.68;37.78
9523;BME280;63165;43.016;25.784;2023-04-01T10:12:34;98621.03;;;22.93;34.95
9523;BME280;63165;43.016;25.784;2023-04-01T10:15:50;98617.38;;;22.84;35.32
9523;BME280;63165;43.016;25.784;2023-04-01T10:18:40;98628.59;;;22.78;35.09
9523;BME280;63165;43.016;25.784;2023-04-01T10:21:37;98618.44;;;22.53;34.50
9523;BME280;63165;43.016;25.784;2023-04-01T10:27:20;98629.59;;;22.37;33.69
9523;BME280;63165;43.016;25.784;2023-04-01T10:39:17;98610.72;;;21.88;34.71
9523;BME280;63165;43.016;25.784;2023-04-01T10:48:44;98573.38;;;21.68;34.79
9523;BME280;63165;43.016;25.784;2023-04-01T10:54:35;98546.91;;;21.77;34.37
9523;BME280;63165;43.016;25.784;2023-04-01T10:57:30;98522.97;;;21.77;33.78
9523;BME280;63165;43.016;25.784;2023-04-01T11:00:17;98518.78;;;21.84;33.59
9523;BME280;63165;43.016;25.784;2023-04-01T11:19:14;98496.41;;;22.56;32.59
9523;BME280;63165;43.016;25.784;2023-04-01T11:22:20;98483.06;;;22.76;32.58
9523;BME280;63165;43.016;25.784;2023-04-01T11:28:11;98499.75;;;22.97;32.19
9523;BME280;63165;43.016;25.784;2023-04-01T11:30:58;98493.84;;;23.03;32.62
9523;BME280;63165;43.016;25.784;2023-04-01T11:33:36;98470.81;;;23.02;32.34
9523;BME280;63165;43.016;25.784;2023-04-01T11:36:14;98487.06;;;23.19;32.89
9523;BME280;63165;43.016;25.784;2023-04-01T11:41:38;98458.25;;;23.42;33.52
9523;BME280;63165;43.016;25.784;2023-04-01T11:44:20;98463.81;;;23.49;33.40
9523;BME280;63165;43.016;25.784;2023-04-01T11:47:20;98467.44;;;23.57;33.29
9523;BME280;63165;43.016;25.784;2023-04-01T11:49:59;98457.91;;;23.55;33.26
9523;BME280;63165;43.016;25.784;2023-04-01T11:52:47;98460.94;;;23.60;33.87
9523;BME280;63165;43.016;25.784;2023-04-01T11:55:31;98460.06;;;23.69;34.50
9523;BME280;63165;43.016;25.784;2023-04-01T11:58:16;98448.28;;;23.72;34.02
9523;BME280;63165;43.016;25.784;2023-04-01T12:01:22;98444.44;;;23.74;34.15
9523;BME280;63165;43.016;25.784;2023-04-01T12:04:19;98417.47;;;23.77;34.36
9523;BME280;63165;43.016;25.784;2023-04-01T12:06:57;98427.09;;;23.88;34.42
9523;BME280;63165;43.016;25.784;2023-04-01T12:09:35;98417.66;;;23.94;34.76
9523;BME280;63165;43.016;25.784;2023-04-01T12:12:13;98430.78;;;24.05;35.31
9523;BME280;63165;43.016;25.784;2023-04-01T12:14:50;98425.16;;;24.08;35.02
9523;BME280;63165;43.016;25.784;2023-04-01T12:17:32;98424.47;;;24.06;35.26
9523;BME280;63165;43.016;25.784;2023-04-01T12:20:28;98414.53;;;24.16;35.55
9523;BME280;63165;43.016;25.784;2023-04-01T12:23:05;98413.94;;;24.22;35.77
9523;BME280;63165;43.016;25.784;2023-04-01T12:26:10;98407.91;;;24.20;35.95
9523;BME280;63165;43.016;25.784;2023-04-01T12:28:55;98402.88;;;24.17;35.46
9523;BME280;63165;43.016;25.784;2023-04-01T12:31:31;98391.50;;;24.15;35.40
9523;BME280;63165;43.016;25.784;2023-04-01T12:34:30;98396.91;;;24.23;36.06
9523;BME280;63165;43.016;25.784;2023-04-01T12:37:07;98404.22;;;24.21;35.93
9523;BME280;63165;43.016;25.784;2023-04-01T12:39:54;98393.91;;;24.09;36.20
9523;BME280;63165;43.016;25.784;2023-04-01T12:42:40;98397.81;;;23.96;36.44
9523;BME280;63165;43.016;25.784;2023-04-01T12:45:30;98385.13;;;23.80;37.45
9523;BME280;63165;43.016;25.784;2023-04-01T12:51:35;98364.84;;;23.60;38.14
9523;BME280;63165;43.016;25.784;2023-04-01T12:54:21;98377.28;;;23.69;37.37
9523;BME280;63165;43.016;25.784;2023-04-01T12:57:03;98379.78;;;23.80;37.38
9523;BME280;63165;43.016;25.784;2023-04-01T12:59:43;98369.03;;;23.90;37.37
9523;BME280;63165;43.016;25.784;2023-04-01T13:02:25;98374.00;;;24.03;37.36
9523;BME280;63165;43.016;25.784;2023-04-01T13:05:25;98371.41;;;24.11;37.30
9523;BME280;63165;43.016;25.784;2023-04-01T13:08:16;98359.19;;;24.09;37.20
9523;BME280;63165;43.016;25.784;2023-04-01T13:11:02;98363.06;;;24.14;37.65
9523;BME280;63165;43.016;25.784;2023-04-01T13:13:48;98354.53;;;24.11;37.21
9523;BME280;63165;43.016;25.784;2023-04-01T13:16:21;98366.38;;;24.08;37.11
9523;BME280;63165;43.016;25.784;2023-04-01T13:18:57;98360.44;;;23.96;37.18
9523;BME280;63165;43.016;25.784;2023-04-01T13:21:35;98359.69;;;23.76;37.14
9523;BME280;63165;43.016;25.784;2023-04-01T13:24:13;98358.47;;;23.71;38.06
9523;BME280;63165;43.016;25.784;2023-04-01T13:26:53;98353.25;;;23.69;37.81
9523;BME280;63165;43.016;25.784;2023-04-01T13:29:26;98353.59;;;23.66;38.79
9523;BME280;63165;43.016;25.784;2023-04-01T13:32:10;98345.56;;;23.66;39.02
9523;BME280;63165;43.016;25.784;2023-04-01T13:34:51;98340.53;;;23.63;38.51
9523;BME280;63165;43.016;25.784;2023-04-01T13:37:32;98310.69;;;23.50;39.28
9523;BME280;63165;43.016;25.784;2023-04-01T13:40:26;98341.28;;;23.55;38.84
9523;BME280;63165;43.016;25.784;2023-04-01T13:42:59;98330.69;;;23.45;39.69
9523;BME280;63165;43.016;25.784;2023-04-01T13:45:34;98320.50;;;23.31;39.10
9523;BME280;63165;43.016;25.784;2023-04-01T13:48:27;98313.81;;;23.17;38.92
9523;BME280;63165;43.016;25.784;2023-04-01T13:54:23;98335.13;;;22.90;39.37
9523;BME280;63165;43.016;25.784;2023-04-01T13:57:07;98332.22;;;22.73;39.68
9523;BME280;63165;43.016;25.784;2023-04-01T14:00:10;98320.72;;;22.73;39.86
9523;BME280;63165;43.016;25.784;2023-04-01T14:02:51;98303.50;;;22.57;40.23
9523;BME280;63165;43.016;25.784;2023-04-01T14:05:44;98312.53;;;22.46;40.28
9523;BME280;63165;43.016;25.784;2023-04-01T14:08:24;98304.53;;;22.37;40.92
9523;BME280;63165;43.016;25.784;2023-04-01T14:11:03;98271.75;;;22.17;40.93
9523;BME280;63165;43.016;25.784;2023-04-01T14:13:42;98294.19;;;22.24;41.29
9523;BME280;63165;43.016;25.784;2023-04-01T14:16:24;98287.72;;;22.17;41.22
9523;BME280;63165;43.016;25.784;2023-04-01T14:22:11;98277.38;;;22.04;41.74
9523;BME280;63165;43.016;25.784;2023-04-01T14:24:53;98260.56;;;21.94;41.68
9523;BME280;63165;43.016;25.784;2023-04-01T14:30:34;98243.75;;;21.83;41.33
9523;BME280;63165;43.016;25.784;2023-04-01T14:33:10;98233.94;;;21.84;41.81
9523;BME280;63165;43.016;25.784;2023-04-01T14:35:41;98222.72;;;21.80;41.83
9523;BME280;63165;43.016;25.784;2023-04-01T14:38:30;98218.69;;;21.76;41.98
9523;BME280;63165;43.016;25.784;2023-04-01T14:41:17;98217.16;;;21.74;42.58
9523;BME280;63165;43.016;25.784;2023-04-01T14:44:10;98210.56;;;21.68;42.63
9523;BME280;63165;43.016;25.784;2023-04-01T14:49:51;98195.41;;;21.39;42.81
9523;BME280;63165;43.016;25.784;2023-04-01T14:52:26;98204.22;;;21.30;43.21
9523;BME280;63165;43.016;25.784;2023-04-01T14:54:54;98241.75;;;21.37;43.71
9523;BME280;63165;43.016;25.784;2023-04-01T14:57:25;98296.75;;;21.26;43.48
9523;BME280;63165;43.016;25.784;2023-04-01T14:59:58;98331.28;;;21.07;43.69
9523;BME280;63165;43.016;25.784;2023-04-01T15:05:32;98406.44;;;20.46;44.70
9523;BME280;63165;43.016;25.784;2023-04-01T15:08:12;98460.41;;;20.14;47.46
9523;BME280;63165;43.016;25.784;2023-04-01T15:11:03;98505.06;;;19.64;52.55
9523;BME280;63165;43.016;25.784;2023-04-01T15:13:53;98572.28;;;18.82;57.28
9523;BME280;63165;43.016;25.784;2023-04-01T15:16:37;98603.88;;;17.98;59.40
9523;BME280;63165;43.016;25.784;2023-04-01T15:19:30;98620.44;;;17.23;61.83
9523;BME280;63165;43.016;25.784;2023-04-01T15:25:27;98649.97;;;16.05;69.12
9523;BME280;63165;43.016;25.784;2023-04-01T15:28:02;98664.09;;;15.76;71.66